sensor_id;sensor_type;location;lat;lon;timestamp;temperature;humidity
59572;DHT22;59406;45.602;11.904;2023-04-19T00:00:42;21.30;78.60
59572;DHT22;59406;45.602;11.904;2023-04-19T00:03:09;21.30;78.60
59572;DHT22;59406;45.602;11.904;2023-04-19T00:05:35;21.30;78.50
59572;DHT22;59406;45.602;11.904;2023-04-19T00:08:04;21.30;78.60
59572;DHT22;59406;45.602;11.904;2023-04-19T00:10:30;21.30;78.70
59572;DHT22;59406;45.602;11.904;2023-04-19T00:12:56;21.30;78.80
59572;DHT22;59406;45.602;11.904;2023-04-19T00:15:22;21.30;78.70
59572;DHT22;59406;45.602;11.904;2023-04-19T00:17:47;21.30;78.70
59572;DHT22;59406;45.602;11.904;2023-04-19T00:20:13;21.40;78.80
59572;DHT22;59406;45.602;11.904;2023-04-19T00:22:39;21.30;78.90
59572;DHT22;59406;45.602;11.904;2023-04-19T00:25:06;21.30;78.90
59572;DHT22;59406;45.602;11.904;2023-04-19T00:27:32;21.30;78.80
59572;DHT22;59406;45.602;11.904;2023-04-19T00:29:58;21.30;78.90
59572;DHT22;59406;45.602;11.904;2023-04-19T00:32:24;21.20;79.00
59572;DHT22;59406;45.602;11.904;2023-04-19T00:34:50;21.30;79.10
59572;DHT22;59406;45.602;11.904;2023-04-19T00:37:16;21.30;79.10
59572;DHT22;59406;45.602;11.904;2023-04-19T00:39:42;21.30;79.00
59572;DHT22;59406;45.602;11.904;2023-04-19T00:42:08;21.20;79.10
59572;DHT22;59406;45.602;11.904;2023-04-19T00:44:34;21.30;79.20
59572;DHT22;59406;45.602;11.904;2023-04-19T00:47:00;21.20;79.00
59572;DHT22;59406;45.602;11.904;2023-04-19T00:49:27;21.30;79.10
59572;DHT22;59406;45.602;11.904;2023-04-19T00:51:53;21.30;79.10
59572;DHT22;59406;45.602;11.904;2023-04-19T00:54:19;21.30;79.10
59572;DHT22;59406;45.602;11.904;2023-04-19T00:56:45;21.20;79.10
59572;DHT22;59406;45.602;11.904;2023-04-19T00:59:14;21.20;79.10
59572;DHT22;59406;45.602;11.904;2023-04-19T01:01:40;21.20;79.00
59572;DHT22;59406;45.602;11.904;2023-04-19T01:04:06;21.20;79.00
59572;DHT22;59406;45.602;11.904;2023-04-19T01:06:34;21.30;79.10
59572;DHT22;59406;45.602;11.904;2023-04-19T01:09:00;21.20;79.20
59572;DHT22;59406;45.602;11.904;2023-04-19T01:11:27;21.20;79.30
59572;DHT22;59406;45.602;11.904;2023-04-19T01:13:56;21.20;79.30
59572;DHT22;59406;45.602;11.904;2023-04-19T01:16:25;21.20;79.30
59572;DHT22;59406;45.602;11.904;2023-04-19T01:18:51;21.10;79.30
59572;DHT22;59406;45.602;11.904;2023-04-19T01:21:17;21.20;79.40
59572;DHT22;59406;45.602;11.904;2023-04-19T01:23:43;21.30;79.30
59572;DHT22;59406;45.602;11.904;2023-04-19T01:26:10;21.10;79.40
59572;DHT22;59406;45.602;11.904;2023-04-19T01:28:36;21.20;79.20
59572;DHT22;59406;45.602;11.904;2023-04-19T01:31:02;21.20;79.20
59572;DHT22;59406;45.602;11.904;2023-04-19T01:33:28;21.10;79.00
59572;DHT22;59406;45.602;11.904;2023-04-19T01:35:54;21.20;79.20
59572;DHT22;59406;45.602;11.904;2023-04-19T01:38:20;21.20;79.10
59572;DHT22;59406;45.602;11.904;2023-04-19T01:40:46;21.20;79.20
59572;DHT22;59406;45.602;11.904;2023-04-19T01:43:15;21.20;79.30
59572;DHT22;59406;45.602;11.904;2023-04-19T01:45:41;21.10;79.30
59572;DHT22;59406;45.602;11.904;2023-04-19T01:48:07;21.10;79.30
59572;DHT22;59406;45.602;11.904;2023-04-19T01:50:32;21.20;79.40
59572;DHT22;59406;45.602;11.904;2023-04-19T01:52:59;21.20;79.40
59572;DHT22;59406;45.602;11.904;2023-04-19T01:55:25;21.10;79.50
59572;DHT22;59406;45.602;11.904;2023-04-19T01:57:50;21.10;79.50
59572;DHT22;59406;45.602;11.904;2023-04-19T02:00:19;21.10;79.50
59572;DHT22;59406;45.602;11.904;2023-04-19T02:02:45;21.10;79.60
59572;DHT22;59406;45.602;11.904;2023-04-19T02:05:11;21.10;79.70
59572;DHT22;59406;45.602;11.904;2023-04-19T02:07:37;21.00;79.70
59572;DHT22;59406;45.602;11.904;2023-04-19T02:10:04;21.10;79.60
59572;DHT22;59406;45.602;11.904;2023-04-19T02:12:31;21.20;79.60
59572;DHT22;59406;45.602;11.904;2023-04-19T02:14:59;21.10;79.80
59572;DHT22;59406;45.602;11.904;2023-04-19T02:17:27;21.10;79.70
59572;DHT22;59406;45.602;11.904;2023-04-19T02:19:53;21.10;79.70
59572;DHT22;59406;45.602;11.904;2023-04-19T02:22:19;21.10;79.60
59572;DHT22;59406;45.602;11.904;2023-04-19T02:24:45;21.10;79.80
59572;DHT22;59406;45.602;11.904;2023-04-19T02:27:12;21.10;79.70
59572;DHT22;59406;45.602;11.904;2023-04-19T02:29:38;21.00;79.70
59572;DHT22;59406;45.602;11.904;2023-04-19T02:32:05;21.10;79.80
59572;DHT22;59406;45.602;11.904;2023-04-19T02:34:32;21.10;79.80
59572;DHT22;59406;45.602;11.904;2023-04-19T02:36:59;21.10;79.90
59572;DHT22;59406;45.602;11.904;2023-04-19T02:39:25;21.00;79.90
59572;DHT22;59406;45.602;11.904;2023-04-19T02:41:51;21.00;79.90
59572;DHT22;59406;45.602;11.904;2023-04-19T02:44:17;21.10;79.90
59572;DHT22;59406;45.602;11.904;2023-04-19T02:46:53;21.10;79.80
59572;DHT22;59406;45.602;11.904;2023-04-19T02:49:20;21.10;80.10
59572;DHT22;59406;45.602;11.904;2023-04-19T02:51:46;21.00;79.90
59572;DHT22;59406;45.602;11.904;2023-04-19T02:54:12;21.00;79.90
59572;DHT22;59406;45.602;11.904;2023-04-19T02:56:38;21.00;79.90
59572;DHT22;59406;45.602;11.904;2023-04-19T02:59:04;21.00;80.00
59572;DHT22;59406;45.602;11.904;2023-04-19T03:01:31;21.00;79.90
59572;DHT22;59406;45.602;11.904;2023-04-19T03:03:57;21.00;79.80
59572;DHT22;59406;45.602;11.904;2023-04-19T03:06:23;21.10;79.80
59572;DHT22;59406;45.602;11.904;2023-04-19T03:08:49;20.90;79.90
59572;DHT22;59406;45.602;11.904;2023-04-19T03:11:15;21.00;80.00
59572;DHT22;59406;45.602;11.904;2023-04-19T03:13:41;21.00;79.90
59572;DHT22;59406;45.602;11.904;2023-04-19T03:16:08;21.00;80.00
59572;DHT22;59406;45.602;11.904;2023-04-19T03:18:34;21.10;80.10
59572;DHT22;59406;45.602;11.904;2023-04-19T03:21:01;21.00;80.20
59572;DHT22;59406;45.602;11.904;2023-04-19T03:23:28;21.00;80.10
59572;DHT22;59406;45.602;11.904;2023-04-19T03:25:54;21.00;79.90
59572;DHT22;59406;45.602;11.904;2023-04-19T03:28:21;20.90;80.00
59572;DHT22;59406;45.602;11.904;2023-04-19T03:30:47;20.90;80.00
59572;DHT22;59406;45.602;11.904;2023-04-19T03:33:13;20.90;80.00
59572;DHT22;59406;45.602;11.904;2023-04-19T03:35:39;20.90;80.10
59572;DHT22;59406;45.602;11.904;2023-04-19T03:38:04;20.90;81.20
59572;DHT22;59406;45.602;11.904;2023-04-19T03:40:35;21.00;80.00
59572;DHT22;59406;45.602;11.904;2023-04-19T03:43:01;21.00;79.90
59572;DHT22;59406;45.602;11.904;2023-04-19T03:45:29;21.00;79.70
59572;DHT22;59406;45.602;11.904;2023-04-19T03:47:55;20.90;79.70
59572;DHT22;59406;45.602;11.904;2023-04-19T03:50:20;20.90;79.80
59572;DHT22;59406;45.602;11.904;2023-04-19T03:52:46;21.00;79.80
59572;DHT22;59406;45.602;11.904;2023-04-19T03:55:12;20.90;79.80
59572;DHT22;59406;45.602;11.904;2023-04-19T03:57:38;20.90;80.00
59572;DHT22;59406;45.602;11.904;2023-04-19T04:00:05;20.90;80.10
59572;DHT22;59406;45.602;11.904;2023-04-19T04:02:37;20.90;80.10
59572;DHT22;59406;45.602;11.904;2023-04-19T04:05:04;20.90;80.30
59572;DHT22;59406;45.602;11.904;2023-04-19T04:07:30;20.90;81.40
59572;DHT22;59406;45.602;11.904;2023-04-19T04:09:56;20.90;80.20
59572;DHT22;59406;45.602;11.904;2023-04-19T04:12:23;21.00;80.30
59572;DHT22;59406;45.602;11.904;2023-04-19T04:14:48;20.90;80.30
59572;DHT22;59406;45.602;11.904;2023-04-19T04:17:14;20.90;81.60
59572;DHT22;59406;45.602;11.904;2023-04-19T04:19:43;20.90;81.60
59572;DHT22;59406;45.602;11.904;2023-04-19T04:22:09;20.90;80.40
59572;DHT22;59406;45.602;11.904;2023-04-19T04:24:38;20.90;81.60
59572;DHT22;59406;45.602;11.904;2023-04-19T04:27:07;20.80;81.80
59572;DHT22;59406;45.602;11.904;2023-04-19T04:29:38;20.80;81.60
59572;DHT22;59406;45.602;11.904;2023-04-19T04:32:08;20.90;81.90
59572;DHT22;59406;45.602;11.904;2023-04-19T04:34:35;20.90;81.70
59572;DHT22;59406;45.602;11.904;2023-04-19T04:37:02;20.90;81.70
59572;DHT22;59406;45.602;11.904;2023-04-19T04:39:28;20.90;81.90
59572;DHT22;59406;45.602;11.904;2023-04-19T04:41:55;21.00;80.50
59572;DHT22;59406;45.602;11.904;2023-04-19T04:44:22;20.90;80.50
59572;DHT22;59406;45.602;11.904;2023-04-19T04:46:48;20.80;81.70
59572;DHT22;59406;45.602;11.904;2023-04-19T04:49:14;20.90;81.80
59572;DHT22;59406;45.602;11.904;2023-04-19T04:51:40;20.80;81.70
59572;DHT22;59406;45.602;11.904;2023-04-19T04:54:06;20.90;81.70
59572;DHT22;59406;45.602;11.904;2023-04-19T04:56:32;20.80;81.80
59572;DHT22;59406;45.602;11.904;2023-04-19T04:58:58;20.80;81.80
59572;DHT22;59406;45.602;11.904;2023-04-19T05:01:24;20.80;81.90
59572;DHT22;59406;45.602;11.904;2023-04-19T05:03:51;20.80;81.90
59572;DHT22;59406;45.602;11.904;2023-04-19T05:06:17;20.80;81.80
59572;DHT22;59406;45.602;11.904;2023-04-19T05:08:43;20.90;80.70
59572;DHT22;59406;45.602;11.904;2023-04-19T05:11:09;20.90;81.80
59572;DHT22;59406;45.602;11.904;2023-04-19T05:13:35;20.90;80.60
59572;DHT22;59406;45.602;11.904;2023-04-19T05:16:01;20.80;81.90
59572;DHT22;59406;45.602;11.904;2023-04-19T05:18:27;20.90;82.30
59572;DHT22;59406;45.602;11.904;2023-04-19T05:20:53;20.80;83.00
59572;DHT22;59406;45.602;11.904;2023-04-19T05:23:19;20.90;83.50
59572;DHT22;59406;45.602;11.904;2023-04-19T05:25:44;20.90;84.10
59572;DHT22;59406;45.602;11.904;2023-04-19T05:28:11;20.80;84.40
59572;DHT22;59406;45.602;11.904;2023-04-19T05:30:37;20.90;83.40
59572;DHT22;59406;45.602;11.904;2023-04-19T05:33:04;20.90;83.70
59572;DHT22;59406;45.602;11.904;2023-04-19T05:35:29;20.80;84.80
59572;DHT22;59406;45.602;11.904;2023-04-19T05:37:55;20.80;84.80
59572;DHT22;59406;45.602;11.904;2023-04-19T05:40:21;20.90;83.80
59572;DHT22;59406;45.602;11.904;2023-04-19T05:42:49;20.90;83.90
59572;DHT22;59406;45.602;11.904;2023-04-19T05:45:15;21.00;84.10
59572;DHT22;59406;45.602;11.904;2023-04-19T05:47:43;20.90;84.30
59572;DHT22;59406;45.602;11.904;2023-04-19T05:50:09;21.00;84.30
59572;DHT22;59406;45.602;11.904;2023-04-19T05:52:35;21.00;84.00
59572;DHT22;59406;45.602;11.904;2023-04-19T05:55:01;21.10;83.70
59572;DHT22;59406;45.602;11.904;2023-04-19T05:57:27;21.00;83.60
59572;DHT22;59406;45.602;11.904;2023-04-19T05:59:53;21.00;83.50
59572;DHT22;59406;45.602;11.904;2023-04-19T06:02:19;21.00;83.20
59572;DHT22;59406;45.602;11.904;2023-04-19T06:04:45;21.00;83.20
59572;DHT22;59406;45.602;11.904;2023-04-19T06:07:11;21.00;83.10
59572;DHT22;59406;45.602;11.904;2023-04-19T06:09:37;21.00;83.10
59572;DHT22;59406;45.602;11.904;2023-04-19T06:12:03;21.00;83.30
59572;DHT22;59406;45.602;11.904;2023-04-19T06:14:28;21.10;83.20
59572;DHT22;59406;45.602;11.904;2023-04-19T06:16:54;21.10;83.20
59572;DHT22;59406;45.602;11.904;2023-04-19T06:19:21;21.10;83.20
59572;DHT22;59406;45.602;11.904;2023-04-19T06:21:48;21.10;83.20
59572;DHT22;59406;45.602;11.904;2023-04-19T06:24:14;21.10;83.30
59572;DHT22;59406;45.602;11.904;2023-04-19T06:26:40;21.10;83.40
59572;DHT22;59406;45.602;11.904;2023-04-19T06:29:05;21.10;83.30
59572;DHT22;59406;45.602;11.904;2023-04-19T06:31:32;21.20;83.40
59572;DHT22;59406;45.602;11.904;2023-04-19T06:33:58;21.00;83.60
59572;DHT22;59406;45.602;11.904;2023-04-19T06:36:24;21.10;83.60
59572;DHT22;59406;45.602;11.904;2023-04-19T06:38:50;21.10;83.50
59572;DHT22;59406;45.602;11.904;2023-04-19T06:41:16;21.00;83.50
59572;DHT22;59406;45.602;11.904;2023-04-19T06:43:42;21.10;83.60
59572;DHT22;59406;45.602;11.904;2023-04-19T06:46:09;21.10;83.60
59572;DHT22;59406;45.602;11.904;2023-04-19T06:48:36;21.10;83.60
59572;DHT22;59406;45.602;11.904;2023-04-19T06:51:02;21.10;83.60
59572;DHT22;59406;45.602;11.904;2023-04-19T06:53:28;21.10;83.60
59572;DHT22;59406;45.602;11.904;2023-04-19T06:55:59;21.10;83.60
59572;DHT22;59406;45.602;11.904;2023-04-19T06:58:29;21.20;84.10
59572;DHT22;59406;45.602;11.904;2023-04-19T07:00:56;21.00;83.30
59572;DHT22;59406;45.602;11.904;2023-04-19T07:03:22;21.20;83.40
59572;DHT22;59406;45.602;11.904;2023-04-19T07:05:48;21.20;83.30
59572;DHT22;59406;45.602;11.904;2023-04-19T07:08:14;21.20;83.30
59572;DHT22;59406;45.602;11.904;2023-04-19T07:10:40;21.20;83.30
59572;DHT22;59406;45.602;11.904;2023-04-19T07:13:10;21.20;83.20
59572;DHT22;59406;45.602;11.904;2023-04-19T07:15:36;21.20;83.20
59572;DHT22;59406;45.602;11.904;2023-04-19T07:18:02;21.20;83.10
59572;DHT22;59406;45.602;11.904;2023-04-19T07:20:28;21.20;83.00
59572;DHT22;59406;45.602;11.904;2023-04-19T07:22:59;21.20;82.90
59572;DHT22;59406;45.602;11.904;2023-04-19T07:25:25;21.20;83.00
59572;DHT22;59406;45.602;11.904;2023-04-19T07:27:53;21.30;82.90
59572;DHT22;59406;45.602;11.904;2023-04-19T07:30:19;21.20;83.00
59572;DHT22;59406;45.602;11.904;2023-04-19T07:32:45;21.30;82.90
59572;DHT22;59406;45.602;11.904;2023-04-19T07:35:11;21.30;82.90
59572;DHT22;59406;45.602;11.904;2023-04-19T07:37:37;21.30;82.90
59572;DHT22;59406;45.602;11.904;2023-04-19T07:40:04;21.40;82.80
59572;DHT22;59406;45.602;11.904;2023-04-19T07:42:30;21.30;82.90
59572;DHT22;59406;45.602;11.904;2023-04-19T07:44:56;21.40;82.70
59572;DHT22;59406;45.602;11.904;2023-04-19T07:47:22;21.40;82.80
59572;DHT22;59406;45.602;11.904;2023-04-19T07:49:51;21.40;82.80
59572;DHT22;59406;45.602;11.904;2023-04-19T07:54:47;21.40;82.80
59572;DHT22;59406;45.602;11.904;2023-04-19T07:57:12;21.30;82.70
59572;DHT22;59406;45.602;11.904;2023-04-19T07:59:38;21.30;82.70
59572;DHT22;59406;45.602;11.904;2023-04-19T08:02:05;21.40;82.80
59572;DHT22;59406;45.602;11.904;2023-04-19T08:04:32;21.30;82.80
59572;DHT22;59406;45.602;11.904;2023-04-19T08:06:58;21.40;82.70
59572;DHT22;59406;45.602;11.904;2023-04-19T08:09:24;21.40;82.70
59572;DHT22;59406;45.602;11.904;2023-04-19T08:11:50;21.30;82.60
59572;DHT22;59406;45.602;11.904;2023-04-19T08:14:16;21.40;82.70
59572;DHT22;59406;45.602;11.904;2023-04-19T08:16:41;21.40;82.60
59572;DHT22;59406;45.602;11.904;2023-04-19T08:19:13;21.40;82.60
59572;DHT22;59406;45.602;11.904;2023-04-19T08:21:39;21.40;82.80
59572;DHT22;59406;45.602;11.904;2023-04-19T08:24:05;21.30;82.60
59572;DHT22;59406;45.602;11.904;2023-04-19T08:26:32;21.40;82.60
59572;DHT22;59406;45.602;11.904;2023-04-19T08:28:58;21.40;82.50
59572;DHT22;59406;45.602;11.904;2023-04-19T08:31:24;21.30;82.40
59572;DHT22;59406;45.602;11.904;2023-04-19T08:33:49;21.40;82.50
59572;DHT22;59406;45.602;11.904;2023-04-19T08:36:15;21.40;82.40
59572;DHT22;59406;45.602;11.904;2023-04-19T08:38:41;21.40;82.20
59572;DHT22;59406;45.602;11.904;2023-04-19T08:41:10;21.40;82.20
59572;DHT22;59406;45.602;11.904;2023-04-19T08:43:36;21.40;82.10
59572;DHT22;59406;45.602;11.904;2023-04-19T08:46:02;21.40;81.80
59572;DHT22;59406;45.602;11.904;2023-04-19T08:48:29;21.50;81.80
59572;DHT22;59406;45.602;11.904;2023-04-19T08:50:57;21.40;81.60
59572;DHT22;59406;45.602;11.904;2023-04-19T08:53:27;21.40;81.90
59572;DHT22;59406;45.602;11.904;2023-04-19T08:55:54;21.50;81.80
59572;DHT22;59406;45.602;11.904;2023-04-19T08:58:24;21.60;81.80
59572;DHT22;59406;45.602;11.904;2023-04-19T09:00:51;21.50;81.70
59572;DHT22;59406;45.602;11.904;2023-04-19T09:03:17;21.50;81.80
59572;DHT22;59406;45.602;11.904;2023-04-19T09:05:42;21.50;81.80
59572;DHT22;59406;45.602;11.904;2023-04-19T09:08:29;21.60;81.90
59572;DHT22;59406;45.602;11.904;2023-04-19T09:10:57;21.60;82.20
59572;DHT22;59406;45.602;11.904;2023-04-19T09:13:24;21.60;81.90
59572;DHT22;59406;45.602;11.904;2023-04-19T09:15:50;21.60;81.80
59572;DHT22;59406;45.602;11.904;2023-04-19T09:18:18;21.50;81.70
59572;DHT22;59406;45.602;11.904;2023-04-19T09:20:45;21.50;81.70
59572;DHT22;59406;45.602;11.904;2023-04-19T09:23:16;21.50;81.70
59572;DHT22;59406;45.602;11.904;2023-04-19T09:26:01;21.60;81.10
59572;DHT22;59406;45.602;11.904;2023-04-19T09:28:30;21.60;80.00
59572;DHT22;59406;45.602;11.904;2023-04-19T09:30:56;21.50;79.90
59572;DHT22;59406;45.602;11.904;2023-04-19T09:33:36;21.50;80.10
59572;DHT22;59406;45.602;11.904;2023-04-19T09:36:06;21.60;79.40
59572;DHT22;59406;45.602;11.904;2023-04-19T09:38:48;21.50;79.90
59572;DHT22;59406;45.602;11.904;2023-04-19T09:41:15;21.60;80.00
59572;DHT22;59406;45.602;11.904;2023-04-19T09:43:42;21.60;79.90
59572;DHT22;59406;45.602;11.904;2023-04-19T09:46:08;21.50;80.60
59572;DHT22;59406;45.602;11.904;2023-04-19T09:48:34;21.60;79.70
59572;DHT22;59406;45.602;11.904;2023-04-19T09:51:01;21.50;79.90
59572;DHT22;59406;45.602;11.904;2023-04-19T09:53:29;21.60;80.00
59572;DHT22;59406;45.602;11.904;2023-04-19T09:55:58;21.50;80.00
59572;DHT22;59406;45.602;11.904;2023-04-19T09:58:24;21.50;80.10
59572;DHT22;59406;45.602;11.904;2023-04-19T10:00:49;21.50;79.80
59572;DHT22;59406;45.602;11.904;2023-04-19T10:03:18;21.60;79.70
59572;DHT22;59406;45.602;11.904;2023-04-19T10:05:44;21.60;79.60
59572;DHT22;59406;45.602;11.904;2023-04-19T10:08:12;21.60;79.30
59572;DHT22;59406;45.602;11.904;2023-04-19T10:10:39;21.60;80.40
59572;DHT22;59406;45.602;11.904;2023-04-19T10:13:08;21.70;80.60
59572;DHT22;59406;45.602;11.904;2023-04-19T10:15:36;21.60;80.10
59572;DHT22;59406;45.602;11.904;2023-04-19T10:18:06;21.70;79.30
59572;DHT22;59406;45.602;11.904;2023-04-19T10:23:08;21.60;80.30
59572;DHT22;59406;45.602;11.904;2023-04-19T10:25:36;21.70;79.70
59572;DHT22;59406;45.602;11.904;2023-04-19T10:28:02;21.70;80.20
59572;DHT22;59406;45.602;11.904;2023-04-19T10:30:28;21.60;80.60
59572;DHT22;59406;45.602;11.904;2023-04-19T10:32:58;21.70;80.60
59572;DHT22;59406;45.602;11.904;2023-04-19T10:35:25;21.70;80.70
59572;DHT22;59406;45.602;11.904;2023-04-19T10:38:11;21.70;79.90
59572;DHT22;59406;45.602;11.904;2023-04-19T10:40:56;21.70;79.10
59572;DHT22;59406;45.602;11.904;2023-04-19T10:43:27;21.70;78.40
59572;DHT22;59406;45.602;11.904;2023-04-19T10:45:58;21.70;79.00
59572;DHT22;59406;45.602;11.904;2023-04-19T10:53:54;21.60;77.60
59572;DHT22;59406;45.602;11.904;2023-04-19T10:57:07;21.60;78.70
59572;DHT22;59406;45.602;11.904;2023-04-19T10:59:12;21.60;78.20
59572;DHT22;59406;45.602;11.904;2023-04-19T11:01:56;21.60;78.60
59572;DHT22;59406;45.602;11.904;2023-04-19T11:07:14;21.60;78.20
59572;DHT22;59406;45.602;11.904;2023-04-19T11:09:46;21.70;80.10
59572;DHT22;59406;45.602;11.904;2023-04-19T11:12:14;21.60;80.80
59572;DHT22;59406;45.602;11.904;2023-04-19T11:17:33;21.70;79.60
59572;DHT22;59406;45.602;11.904;2023-04-19T11:20:08;21.70;79.10
59572;DHT22;59406;45.602;11.904;2023-04-19T11:22:37;21.60;78.60
59572;DHT22;59406;45.602;11.904;2023-04-19T11:30:07;21.60;78.50
59572;DHT22;59406;45.602;11.904;2023-04-19T11:32:34;21.60;78.40
59572;DHT22;59406;45.602;11.904;2023-04-19T11:35:07;21.70;78.90
59572;DHT22;59406;45.602;11.904;2023-04-19T11:37:34;21.70;79.50
59572;DHT22;59406;45.602;11.904;2023-04-19T11:40:01;21.60;79.00
59572;DHT22;59406;45.602;11.904;2023-04-19T11:42:27;21.70;79.60
59572;DHT22;59406;45.602;11.904;2023-04-19T11:44:53;21.60;79.70
59572;DHT22;59406;45.602;11.904;2023-04-19T11:47:21;21.70;78.80
59572;DHT22;59406;45.602;11.904;2023-04-19T11:49:47;21.70;78.80
59572;DHT22;59406;45.602;11.904;2023-04-19T11:52:22;21.70;78.80
59572;DHT22;59406;45.602;11.904;2023-04-19T11:54:50;21.70;78.40
59572;DHT22;59406;45.602;11.904;2023-04-19T11:57:26;21.70;78.90
59572;DHT22;59406;45.602;11.904;2023-04-19T12:00:05;21.70;78.80
59572;DHT22;59406;45.602;11.904;2023-04-19T12:02:37;21.70;78.60
59572;DHT22;59406;45.602;11.904;2023-04-19T12:05:11;21.70;79.30
59572;DHT22;59406;45.602;11.904;2023-04-19T12:07:56;21.70;78.40
59572;DHT22;59406;45.602;11.904;2023-04-19T12:10:22;21.70;78.60
59572;DHT22;59406;45.602;11.904;2023-04-19T12:12:47;21.70;78.70
59572;DHT22;59406;45.602;11.904;2023-04-19T12:15:13;21.80;78.90
59572;DHT22;59406;45.602;11.904;2023-04-19T12:17:58;21.70;78.70
59572;DHT22;59406;45.602;11.904;2023-04-19T12:20:36;21.70;80.10
59572;DHT22;59406;45.602;11.904;2023-04-19T12:23:03;21.70;78.60
59572;DHT22;59406;45.602;11.904;2023-04-19T12:25:33;21.80;79.10
59572;DHT22;59406;45.602;11.904;2023-04-19T12:28:01;21.80;79.90
59572;DHT22;59406;45.602;11.904;2023-04-19T12:30:27;21.80;79.70
59572;DHT22;59406;45.602;11.904;2023-04-19T12:32:53;21.70;80.10
59572;DHT22;59406;45.602;11.904;2023-04-19T12:35:24;21.80;80.10
59572;DHT22;59406;45.602;11.904;2023-04-19T12:37:55;21.80;79.70
59572;DHT22;59406;45.602;11.904;2023-04-19T12:40:22;21.80;80.20
59572;DHT22;59406;45.602;11.904;2023-04-19T12:42:48;21.70;79.50
59572;DHT22;59406;45.602;11.904;2023-04-19T12:45:14;21.80;79.10
59572;DHT22;59406;45.602;11.904;2023-04-19T12:47:40;21.80;79.00
59572;DHT22;59406;45.602;11.904;2023-04-19T12:50:07;21.80;79.00
59572;DHT22;59406;45.602;11.904;2023-04-19T12:52:33;21.80;79.10
59572;DHT22;59406;45.602;11.904;2023-04-19T12:54:59;21.80;78.90
59572;DHT22;59406;45.602;11.904;2023-04-19T12:57:24;21.70;79.40
59572;DHT22;59406;45.602;11.904;2023-04-19T12:59:50;21.80;79.80
59572;DHT22;59406;45.602;11.904;2023-04-19T13:02:16;21.80;79.70
59572;DHT22;59406;45.602;11.904;2023-04-19T13:04:42;21.70;79.70
59572;DHT22;59406;45.602;11.904;2023-04-19T13:07:07;21.70;79.70
59572;DHT22;59406;45.602;11.904;2023-04-19T13:09:33;21.80;79.70
59572;DHT22;59406;45.602;11.904;2023-04-19T13:11:59;21.80;79.70
59572;DHT22;59406;45.602;11.904;2023-04-19T13:14:26;21.80;80.10
59572;DHT22;59406;45.602;11.904;2023-04-19T13:16:52;21.80;79.50
59572;DHT22;59406;45.602;11.904;2023-04-19T13:19:18;21.80;79.10
59572;DHT22;59406;45.602;11.904;2023-04-19T13:21:44;21.80;79.30
59572;DHT22;59406;45.602;11.904;2023-04-19T13:24:10;21.80;79.50
59572;DHT22;59406;45.602;11.904;2023-04-19T13:26:36;21.70;79.50
59572;DHT22;59406;45.602;11.904;2023-04-19T13:29:03;21.80;79.40
59572;DHT22;59406;45.602;11.904;2023-04-19T13:31:29;21.80;79.40
59572;DHT22;59406;45.602;11.904;2023-04-19T13:33:55;21.80;79.40
59572;DHT22;59406;45.602;11.904;2023-04-19T13:36:21;21.80;79.50
59572;DHT22;59406;45.602;11.904;2023-04-19T13:38:48;21.90;79.70
59572;DHT22;59406;45.602;11.904;2023-04-19T13:41:13;21.70;80.10
59572;DHT22;59406;45.602;11.904;2023-04-19T13:43:39;21.80;80.30
59572;DHT22;59406;45.602;11.904;2023-04-19T13:46:05;21.90;80.60
59572;DHT22;59406;45.602;11.904;2023-04-19T13:48:31;21.80;80.00
59572;DHT22;59406;45.602;11.904;2023-04-19T13:50:58;21.90;79.50
59572;DHT22;59406;45.602;11.904;2023-04-19T13:53:26;21.90;80.00
59572;DHT22;59406;45.602;11.904;2023-04-19T13:55:53;21.90;79.50
59572;DHT22;59406;45.602;11.904;2023-04-19T13:58:19;21.80;79.20
59572;DHT22;59406;45.602;11.904;2023-04-19T14:00:45;21.80;79.50
59572;DHT22;59406;45.602;11.904;2023-04-19T14:03:12;21.80;80.00
59572;DHT22;59406;45.602;11.904;2023-04-19T14:05:39;21.80;80.10
59572;DHT22;59406;45.602;11.904;2023-04-19T14:08:05;21.90;79.60
59572;DHT22;59406;45.602;11.904;2023-04-19T14:13:06;21.80;79.50
59572;DHT22;59406;45.602;11.904;2023-04-19T14:15:32;21.70;79.90
59572;DHT22;59406;45.602;11.904;2023-04-19T14:17:58;21.80;80.00
59572;DHT22;59406;45.602;11.904;2023-04-19T14:20:24;21.80;80.00
59572;DHT22;59406;45.602;11.904;2023-04-19T14:22:50;21.80;80.00
59572;DHT22;59406;45.602;11.904;2023-04-19T14:25:16;21.70;80.30
59572;DHT22;59406;45.602;11.904;2023-04-19T14:27:45;21.80;80.60
59572;DHT22;59406;45.602;11.904;2023-04-19T14:30:11;21.80;80.80
59572;DHT22;59406;45.602;11.904;2023-04-19T14:32:37;21.70;81.00
59572;DHT22;59406;45.602;11.904;2023-04-19T14:35:03;21.70;81.10
59572;DHT22;59406;45.602;11.904;2023-04-19T14:37:29;21.80;81.10
59572;DHT22;59406;45.602;11.904;2023-04-19T14:39:55;21.70;81.00
59572;DHT22;59406;45.602;11.904;2023-04-19T14:42:21;21.80;81.20
59572;DHT22;59406;45.602;11.904;2023-04-19T14:47:14;21.70;80.10
59572;DHT22;59406;45.602;11.904;2023-04-19T14:49:40;21.70;79.00
59572;DHT22;59406;45.602;11.904;2023-04-19T14:52:06;21.80;79.00
59572;DHT22;59406;45.602;11.904;2023-04-19T14:54:32;21.70;79.40
59572;DHT22;59406;45.602;11.904;2023-04-19T14:56:58;21.70;79.50
59572;DHT22;59406;45.602;11.904;2023-04-19T14:59:24;21.80;79.40
59572;DHT22;59406;45.602;11.904;2023-04-19T15:01:50;21.70;78.90
59572;DHT22;59406;45.602;11.904;2023-04-19T15:04:16;21.80;78.90
59572;DHT22;59406;45.602;11.904;2023-04-19T15:06:42;21.70;79.00
59572;DHT22;59406;45.602;11.904;2023-04-19T15:09:08;21.70;79.70
59572;DHT22;59406;45.602;11.904;2023-04-19T15:11:35;21.70;79.90
59572;DHT22;59406;45.602;11.904;2023-04-19T15:14:01;21.70;80.20
59572;DHT22;59406;45.602;11.904;2023-04-19T15:16:27;21.70;80.20
59572;DHT22;59406;45.602;11.904;2023-04-19T15:18:52;21.70;80.30
59572;DHT22;59406;45.602;11.904;2023-04-19T15:21:19;21.80;80.30
59572;DHT22;59406;45.602;11.904;2023-04-19T15:23:45;21.70;80.60
59572;DHT22;59406;45.602;11.904;2023-04-19T15:26:11;21.70;80.40
59572;DHT22;59406;45.602;11.904;2023-04-19T15:28:37;21.70;80.00
59572;DHT22;59406;45.602;11.904;2023-04-19T15:31:05;21.70;80.30
59572;DHT22;59406;45.602;11.904;2023-04-19T15:33:32;21.80;80.60
59572;DHT22;59406;45.602;11.904;2023-04-19T15:35:58;21.70;80.50
59572;DHT22;59406;45.602;11.904;2023-04-19T15:38:28;21.70;80.50
59572;DHT22;59406;45.602;11.904;2023-04-19T15:40:56;21.80;80.60